Celina, Ohio
Current Conditions -  °F | °C
As of 7:51 PM on Monday 26 Jan 2015 (Local Time) from KAXV Reporting Station
Clear Clear  
Wind Chill:   Ceiling: Unl
Heat Index:   Visibility: 10mi
Dew Point:   Wind: 0mph
Humidity: 85%   Direction: NA
Pressure: 29.94"   Gusts: NA
Location:  40.55°N, 84.57°W
Report Text: KAXV 270051Z AUTO 00000KT 10SM CLR M13/M15 A2994 RMK AO2
Loading
Personal Weather Stations






























Interactive Weather Map New forecast layout! Learn more

10-Day Weather Forecast

Advertisements
Track Severe Weather on mobile